createdAt,value
2019-02-05T00:02:06.149Z,98.08
2019-02-05T00:04:36.685Z,98.05
2019-02-05T00:07:07.252Z,98.18
2019-02-05T00:09:37.753Z,98.27
2019-02-05T00:12:08.708Z,98.53
2019-02-05T00:14:39.229Z,98.58
2019-02-05T00:17:09.776Z,98.38
2019-02-05T00:19:40.267Z,98.00
2019-02-05T00:22:10.857Z,97.75
2019-02-05T00:24:41.680Z,97.96
2019-02-05T00:27:12.269Z,98.03
2019-02-05T00:29:42.831Z,98.02
2019-02-05T00:32:13.492Z,98.22
2019-02-05T00:34:44.011Z,98.30
2019-02-05T00:37:14.595Z,97.99
2019-02-05T00:39:45.145Z,97.78
2019-02-05T00:42:15.768Z,97.93
2019-02-05T00:44:46.255Z,98.15
2019-02-05T00:47:16.837Z,97.83
2019-02-05T00:49:47.339Z,97.72
2019-02-05T00:52:18.302Z,97.89
2019-02-05T00:54:48.837Z,97.69
2019-02-05T00:57:19.393Z,97.42
2019-02-05T00:59:50.205Z,97.73
2019-02-05T01:02:22.428Z,97.76
2019-02-05T01:04:53.230Z,97.76
2019-02-05T01:07:23.862Z,97.50
2019-02-05T01:09:54.395Z,97.30
2019-02-05T01:12:25.412Z,97.60
2019-02-05T01:14:56.028Z,97.79
2019-02-05T01:17:26.614Z,97.85
2019-02-05T01:19:57.245Z,97.69
2019-02-05T01:22:27.898Z,98.04
2019-02-05T01:24:58.403Z,98.12
2019-02-05T01:27:29.061Z,98.01
2019-02-05T01:29:59.729Z,98.09
2019-02-05T01:32:30.355Z,98.16
2019-02-05T01:35:00.912Z,98.27
2019-02-05T01:37:31.722Z,98.15
2019-02-05T01:40:02.319Z,98.01
2019-02-05T01:42:32.917Z,97.67
2019-02-05T01:45:03.942Z,97.81
2019-02-05T01:47:34.520Z,98.21
2019-02-05T01:50:06.033Z,98.38
2019-02-05T01:52:36.594Z,98.20
2019-02-05T01:55:08.061Z,98.34
2019-02-05T01:57:39.167Z,98.12
2019-02-05T02:00:14.517Z,98.33
2019-02-05T02:02:46.796Z,98.35
2019-02-05T02:05:17.917Z,98.52
2019-02-05T02:07:49.255Z,98.34
2019-02-05T02:10:26.834Z,98.45
2019-02-05T02:12:57.888Z,98.37
2019-02-05T02:15:28.841Z,97.86
2019-02-05T02:18:02.122Z,97.58
2019-02-05T02:20:36.999Z,97.75
2019-02-05T02:23:15.540Z,97.98
2019-02-05T02:25:48.287Z,97.99
2019-02-05T02:28:19.204Z,97.77
2019-02-05T02:30:50.096Z,97.85
2019-02-05T02:33:21.197Z,97.93
2019-02-05T02:35:53.469Z,97.69
2019-02-05T02:38:27.473Z,97.52
2019-02-05T02:40:58.091Z,97.91
2019-02-05T02:43:28.913Z,98.14
2019-02-05T02:45:59.794Z,97.88
2019-02-05T02:48:33.351Z,97.80
2019-02-05T02:51:05.762Z,98.25
2019-02-05T02:53:40.680Z,98.24
2019-02-05T02:56:12.955Z,97.64
2019-02-05T02:58:43.639Z,97.67
2019-02-05T03:01:17.615Z,97.71
2019-02-05T03:03:48.298Z,97.29
2019-02-05T03:06:18.945Z,97.52
2019-02-05T03:08:49.483Z,97.43
2019-02-05T03:11:22.800Z,97.23
2019-02-05T03:13:53.334Z,97.21
2019-02-05T03:16:24.093Z,97.33
2019-02-05T03:18:54.712Z,97.29
2019-02-05T03:21:25.255Z,97.07
2019-02-05T03:23:55.856Z,97.19
2019-02-05T03:26:26.729Z,97.01
2019-02-05T03:28:57.383Z,97.28
2019-02-05T03:31:27.992Z,97.30
2019-02-05T03:33:58.540Z,97.05
2019-02-05T03:36:29.146Z,96.89
2019-02-05T03:38:59.655Z,96.75
2019-02-05T03:41:30.572Z,96.93
2019-02-05T03:44:01.123Z,97.36
2019-02-05T03:46:31.896Z,97.60
2019-02-05T03:49:02.811Z,97.42
2019-02-05T03:52:11.720Z,97.71
2019-02-05T03:55:41.285Z,97.74
2019-02-05T03:59:19.285Z,97.62
2019-02-05T04:02:50.536Z,97.49
2019-02-05T04:06:13.252Z,97.33
2019-02-05T04:09:45.134Z,97.76
2019-02-05T04:12:59.850Z,98.00
2019-02-05T04:16:52.578Z,98.03
2019-02-05T04:20:13.302Z,98.08
2019-02-05T04:23:34.841Z,97.77
2019-02-05T04:26:56.036Z,98.01
2019-02-05T04:30:16.572Z,98.01
2019-02-05T04:33:30.491Z,98.28
2019-02-05T04:36:31.988Z,98.64
2019-02-05T04:39:43.046Z,98.86
2019-02-05T04:43:10.954Z,99.04
2019-02-05T04:46:49.514Z,98.89
2019-02-05T04:50:03.027Z,98.67
2019-02-05T04:53:17.320Z,98.44
2019-02-05T04:56:30.751Z,98.14
2019-02-05T04:59:52.164Z,98.07
2019-02-05T05:03:20.038Z,97.95
2019-02-05T05:06:28.830Z,97.90
2019-02-05T05:09:38.691Z,97.74
2019-02-05T05:12:10.278Z,97.30
2019-02-05T05:14:41.248Z,97.36
2019-02-05T05:17:13.824Z,97.44
2019-02-05T05:19:44.172Z,97.43
2019-02-05T05:22:14.777Z,97.29
2019-02-05T05:24:45.745Z,96.61
2019-02-05T05:27:18.846Z,96.74
2019-02-05T05:29:50.051Z,96.87
2019-02-05T05:32:20.927Z,97.18
2019-02-05T05:34:51.494Z,97.10
2019-02-05T05:37:19.598Z,96.73
2019-02-05T05:39:50.109Z,96.73
2019-02-05T05:42:20.663Z,96.73
2019-02-05T05:44:51.235Z,96.59
2019-02-05T05:47:21.845Z,96.52
2019-02-05T05:49:52.371Z,96.34
2019-02-05T05:52:22.893Z,96.13
2019-02-05T05:54:53.481Z,96.25
2019-02-05T05:57:24.047Z,96.27
2019-02-05T05:59:54.875Z,95.95
2019-02-05T06:02:25.413Z,96.15
2019-02-05T06:04:55.980Z,96.52
2019-02-05T06:07:26.577Z,96.55
2019-02-05T06:09:57.140Z,96.32
2019-02-05T06:12:27.973Z,96.47
2019-02-05T06:14:58.540Z,96.55
2019-02-05T06:17:30.983Z,96.40
2019-02-05T06:20:04.132Z,96.52
2019-02-05T06:22:37.843Z,96.94
2019-02-05T06:25:09.926Z,96.84
2019-02-05T06:27:45.505Z,96.69
2019-02-05T06:30:17.849Z,96.73
2019-02-05T06:32:53.121Z,96.61
2019-02-05T06:35:25.562Z,96.59
2019-02-05T06:37:56.536Z,96.50
2019-02-05T06:40:29.462Z,96.44
2019-02-05T06:43:04.838Z,96.27
2019-02-05T06:45:36.596Z,96.28
2019-02-05T06:48:09.808Z,96.59
2019-02-05T06:50:43.301Z,96.85
2019-02-05T06:53:16.108Z,96.90
2019-02-05T06:55:48.760Z,96.79
2019-02-05T06:58:23.305Z,96.79
2019-02-05T07:00:57.047Z,97.62
2019-02-05T07:03:28.889Z,97.88
2019-02-05T07:05:59.509Z,97.96
2019-02-05T07:08:30.108Z,97.99
2019-02-05T07:11:00.683Z,97.81
2019-02-05T07:13:31.260Z,97.88
2019-02-05T07:16:02.078Z,97.95
2019-02-05T07:18:32.692Z,97.91
2019-02-05T07:21:03.232Z,98.31
2019-02-05T07:23:33.935Z,98.54
2019-02-05T07:26:04.648Z,98.38
2019-02-05T07:28:35.238Z,98.42
2019-02-05T07:31:05.994Z,98.64
2019-02-05T07:33:36.672Z,98.84
2019-02-05T07:36:07.302Z,99.04
2019-02-05T07:38:37.884Z,99.06
2019-02-05T07:41:10.049Z,99.20
2019-02-05T07:43:40.795Z,99.30
2019-02-05T07:46:11.997Z,99.35
2019-02-05T07:48:42.897Z,99.31
2019-02-05T07:51:13.608Z,99.29
2019-02-05T07:53:47.299Z,99.30
2019-02-05T07:56:18.154Z,99.15
2019-02-05T07:58:48.889Z,98.94
2019-02-05T08:01:22.725Z,98.92
2019-02-05T08:03:53.409Z,98.70
2019-02-05T08:06:24.186Z,98.66
2019-02-05T08:08:55.306Z,98.69
2019-02-05T08:11:25.920Z,98.59
2019-02-05T08:13:56.681Z,98.48
2019-02-05T08:16:27.599Z,98.55
2019-02-05T08:18:58.485Z,98.48
2019-02-05T08:21:37.352Z,98.63
2019-02-05T08:24:08.339Z,98.63
2019-02-05T08:26:42.746Z,98.49
2019-02-05T08:29:21.364Z,98.42
2019-02-05T08:31:46.808Z,98.46
2019-02-05T08:34:19.360Z,98.58
2019-02-05T08:36:51.568Z,98.54
2019-02-05T08:39:25.550Z,98.67
2019-02-05T08:42:03.134Z,98.77
2019-02-05T08:44:33.906Z,98.78
2019-02-05T08:47:07.366Z,98.78
2019-02-05T08:49:38.126Z,98.76
2019-02-05T08:52:08.745Z,98.83
2019-02-05T08:54:39.681Z,98.99
2019-02-05T08:57:10.416Z,99.06
2019-02-05T08:59:41.345Z,99.01
2019-02-05T09:02:12.214Z,98.67
2019-02-05T09:04:43.138Z,97.91
2019-02-05T09:07:13.908Z,96.31
2019-02-05T09:09:44.860Z,95.58
2019-02-05T09:12:17.941Z,94.90
2019-02-05T09:14:47.877Z,94.48
2019-02-05T09:17:18.853Z,93.73
2019-02-05T09:19:49.424Z,93.31
2019-02-05T09:22:20.118Z,93.09
2019-02-05T09:24:50.847Z,92.56
2019-02-05T09:27:21.581Z,91.77
2019-02-05T09:29:52.427Z,91.96
2019-02-05T09:32:23.022Z,91.98
2019-02-05T09:34:55.380Z,91.93
2019-02-05T09:37:25.882Z,91.84
2019-02-05T09:39:56.461Z,91.32
2019-02-05T09:42:27.092Z,91.30
2019-02-05T09:44:57.672Z,91.13
2019-02-05T09:47:28.244Z,91.03
2019-02-05T09:49:58.936Z,90.70
2019-02-05T09:52:29.475Z,90.12
2019-02-05T09:55:00.136Z,90.18
2019-02-05T09:57:30.817Z,89.90
2019-02-05T10:00:01.387Z,89.23
2019-02-05T10:02:31.965Z,89.15
2019-02-05T10:05:02.514Z,89.24
2019-02-05T10:07:33.460Z,89.23
2019-02-05T10:10:04.882Z,89.43
2019-02-05T10:12:35.359Z,88.90
2019-02-05T10:15:09.684Z,88.83
2019-02-05T10:17:40.242Z,88.92
2019-02-05T10:20:11.495Z,89.02
2019-02-05T10:22:42.395Z,88.93
2019-02-05T10:25:13.322Z,88.90
2019-02-05T10:27:43.804Z,88.76
2019-02-05T10:30:36.810Z,88.64
2019-02-05T10:33:08.563Z,88.76
2019-02-05T10:35:39.390Z,88.73
2019-02-05T10:38:10.020Z,89.03
2019-02-05T10:40:40.502Z,89.33
2019-02-05T10:43:11.116Z,89.06
2019-02-05T10:45:41.687Z,88.36
2019-02-05T10:48:12.680Z,87.64
2019-02-05T10:50:43.290Z,87.87
2019-02-05T10:53:13.905Z,87.75
2019-02-05T10:55:44.506Z,86.78
2019-02-05T10:58:15.085Z,86.61
2019-02-05T11:00:45.580Z,85.26
2019-02-05T11:03:16.114Z,85.13
2019-02-05T11:05:46.677Z,85.60
2019-02-05T11:08:17.227Z,85.53
2019-02-05T11:10:47.807Z,84.60
2019-02-05T11:13:18.895Z,83.65
2019-02-05T11:15:49.733Z,84.08
2019-02-05T11:18:20.281Z,84.50
2019-02-05T11:20:53.198Z,84.48
2019-02-05T11:23:23.793Z,83.18
2019-02-05T11:25:54.315Z,83.65
2019-02-05T11:28:24.851Z,82.67
2019-02-05T11:30:56.018Z,81.31
2019-02-05T11:33:26.577Z,80.93
2019-02-05T11:35:57.166Z,80.82
2019-02-05T11:38:27.707Z,80.80
2019-02-05T11:40:58.260Z,80.53
2019-02-05T11:43:28.799Z,81.04
2019-02-05T11:45:59.614Z,80.19
2019-02-05T11:48:30.135Z,80.13
2019-02-05T11:51:00.680Z,79.54
2019-02-05T11:53:31.213Z,79.91
2019-02-05T11:56:01.775Z,79.63
2019-02-05T11:58:32.321Z,79.41
2019-02-05T12:01:24.152Z,79.51
2019-02-05T12:03:54.651Z,79.77
2019-02-05T12:06:25.215Z,79.86
2019-02-05T12:08:55.732Z,79.40
2019-02-05T12:11:26.954Z,79.87
2019-02-05T12:13:57.423Z,79.19
2019-02-05T12:16:27.960Z,79.75
2019-02-05T12:19:01.734Z,80.15
2019-02-05T12:21:32.246Z,79.78
2019-02-05T12:24:02.771Z,79.81
2019-02-05T12:26:33.514Z,79.40
2019-02-05T12:29:04.093Z,79.27
2019-02-05T12:31:34.637Z,78.41
2019-02-05T12:34:05.248Z,78.11
2019-02-05T12:36:35.817Z,78.09
2019-02-05T12:39:17.412Z,77.76
2019-02-05T12:41:47.946Z,78.26
2019-02-05T12:44:18.484Z,78.20
2019-02-05T12:46:49.051Z,77.46
2019-02-05T12:49:19.551Z,77.49
2019-02-05T12:51:50.056Z,77.52
2019-02-05T12:54:20.645Z,77.62
2019-02-05T12:56:51.186Z,77.22
2019-02-05T12:59:21.722Z,78.39
2019-02-05T13:01:52.226Z,78.06
2019-02-05T13:04:22.746Z,77.94
2019-02-05T13:06:53.629Z,77.23
2019-02-05T13:09:24.957Z,77.46
2019-02-05T13:11:55.488Z,77.96
2019-02-05T13:14:26.006Z,77.91
2019-02-05T13:16:56.591Z,78.37
2019-02-05T13:19:30.175Z,78.83
2019-02-05T13:22:00.679Z,78.53
2019-02-05T13:24:31.185Z,78.42
2019-02-05T13:27:01.773Z,79.20
2019-02-05T13:29:32.278Z,79.58
2019-02-05T13:32:04.526Z,79.34
2019-02-05T13:34:34.998Z,79.42
2019-02-05T13:37:05.871Z,78.29
2019-02-05T13:39:36.372Z,77.06
2019-02-05T13:42:06.964Z,77.25
2019-02-05T13:44:37.488Z,78.06
2019-02-05T13:47:08.051Z,79.12
2019-02-05T13:49:38.531Z,79.14
2019-02-05T13:52:09.068Z,78.91
2019-02-05T13:54:39.626Z,79.34
2019-02-05T13:57:10.166Z,78.51
2019-02-05T13:59:40.961Z,78.79
2019-02-05T14:02:11.511Z,79.79
2019-02-05T14:04:42.038Z,80.26
2019-02-05T14:07:14.409Z,79.98
2019-02-05T14:09:44.924Z,79.33
2019-02-05T14:12:15.460Z,79.80
2019-02-05T14:14:45.985Z,80.07
2019-02-05T14:17:16.597Z,80.55
2019-02-05T14:19:47.113Z,80.89
2019-02-05T14:22:17.699Z,80.61
2019-02-05T14:24:48.240Z,79.26
2019-02-05T14:27:19.048Z,80.10
2019-02-05T14:29:49.589Z,80.36
2019-02-05T14:32:20.114Z,79.85
2019-02-05T14:34:50.669Z,80.13
2019-02-05T14:37:23.007Z,80.19
2019-02-05T14:39:53.490Z,80.04
2019-02-05T14:42:25.044Z,80.05
2019-02-05T14:44:58.821Z,80.58
2019-02-05T14:47:29.435Z,80.81
2019-02-05T14:49:59.956Z,80.25
2019-02-05T14:52:30.511Z,79.65
2019-02-05T14:55:01.019Z,80.37
2019-02-05T14:57:31.579Z,80.37
2019-02-05T15:00:02.161Z,80.44
2019-02-05T15:02:32.703Z,80.65
2019-02-05T15:05:03.213Z,80.82
2019-02-05T15:07:34.034Z,81.19
2019-02-05T15:10:05.352Z,80.02
2019-02-05T15:12:36.000Z,78.31
2019-02-05T15:15:10.504Z,78.95
2019-02-05T15:17:43.186Z,78.75
2019-02-05T15:20:18.488Z,77.69
2019-02-05T15:22:49.030Z,78.97
2019-02-05T15:25:20.961Z,79.93
2019-02-05T15:27:51.437Z,80.02
2019-02-05T15:30:26.191Z,80.60
2019-02-05T15:33:27.710Z,80.92
2019-02-05T15:36:03.092Z,81.52
2019-02-05T15:38:33.782Z,81.62
2019-02-05T15:41:04.416Z,82.11
2019-02-05T15:43:35.045Z,82.86
2019-02-05T15:46:05.562Z,82.86
2019-02-05T15:48:36.132Z,83.17
2019-02-05T15:51:07.198Z,83.19
2019-02-05T15:53:37.751Z,83.38
2019-02-05T15:56:08.275Z,83.47
2019-02-05T15:58:38.809Z,83.96
2019-02-05T16:01:09.397Z,84.22
2019-02-05T16:03:39.901Z,84.45
2019-02-05T16:06:10.528Z,84.53
2019-02-05T16:08:41.132Z,85.12
2019-02-05T16:11:13.404Z,85.07
2019-02-05T16:13:43.978Z,85.20
2019-02-05T16:16:14.521Z,85.19
2019-02-05T16:18:45.235Z,85.22
2019-02-05T16:21:15.779Z,85.19
2019-02-05T16:23:46.337Z,85.24
2019-02-05T16:26:16.881Z,85.50
2019-02-05T16:28:47.468Z,85.63
2019-02-05T16:31:18.069Z,85.71
2019-02-05T16:33:48.681Z,85.96
2019-02-05T16:36:19.221Z,86.27
2019-02-05T16:38:49.793Z,86.30
2019-02-05T16:41:20.408Z,86.17
2019-02-05T16:43:53.710Z,86.33
2019-02-05T16:46:24.527Z,86.62
2019-02-05T16:48:55.128Z,86.81
2019-02-05T16:51:25.736Z,86.96
2019-02-05T16:53:56.384Z,87.18
2019-02-05T16:56:26.976Z,87.36
2019-02-05T16:58:58.144Z,87.72
2019-02-05T17:01:29.386Z,87.93
2019-02-05T17:03:59.904Z,88.44
2019-02-05T17:06:30.433Z,88.27
2019-02-05T17:09:01.005Z,88.41
2019-02-05T17:11:31.524Z,88.42
2019-02-05T17:14:02.095Z,88.44
2019-02-05T17:16:33.373Z,88.69
2019-02-05T17:19:03.979Z,88.71
2019-02-05T17:21:36.612Z,88.86
2019-02-05T17:24:07.186Z,88.95
2019-02-05T17:26:38.200Z,89.21
2019-02-05T17:29:08.786Z,89.75
2019-02-05T17:31:39.292Z,90.00
2019-02-05T17:34:12.259Z,90.13
2019-02-05T17:36:43.760Z,90.59
2019-02-05T17:39:15.266Z,90.95
2019-02-05T17:41:45.864Z,90.89
2019-02-05T17:44:16.399Z,91.19
2019-02-05T17:46:46.959Z,91.23
2019-02-05T17:49:17.525Z,91.23
2019-02-05T17:51:48.112Z,91.39
2019-02-05T17:54:18.819Z,91.69
2019-02-05T17:56:49.429Z,91.98
2019-02-05T17:59:20.668Z,91.88
2019-02-05T18:01:51.191Z,92.12
2019-02-05T18:04:21.763Z,92.72
2019-02-05T18:06:52.584Z,92.43
2019-02-05T18:09:23.160Z,92.48
2019-02-05T18:11:53.772Z,92.94
2019-02-05T18:14:24.441Z,93.42
2019-02-05T18:16:55.014Z,93.28
2019-02-05T18:19:26.340Z,93.29
2019-02-05T18:21:56.943Z,93.02
2019-02-05T18:24:27.478Z,93.13
2019-02-05T18:26:58.016Z,93.23
2019-02-05T18:29:31.728Z,93.50
2019-02-05T18:32:03.688Z,94.05
2019-02-05T18:34:34.241Z,93.84
2019-02-05T18:37:04.966Z,93.61
2019-02-05T18:39:39.844Z,93.90
2019-02-05T18:42:10.384Z,94.01
2019-02-05T18:44:41.277Z,94.31
2019-02-05T18:47:14.257Z,94.12
2019-02-05T18:49:45.490Z,94.23
2019-02-05T18:52:19.030Z,94.41
2019-02-05T18:54:49.674Z,94.01
2019-02-05T18:57:20.659Z,94.13
2019-02-05T18:59:51.201Z,94.48
2019-02-05T19:02:21.829Z,94.41
2019-02-05T19:04:52.366Z,94.53
2019-02-05T19:07:22.993Z,94.68
2019-02-05T19:09:53.576Z,94.71
2019-02-05T19:12:24.348Z,94.85
2019-02-05T19:14:55.209Z,94.66
2019-02-05T19:17:25.787Z,94.74
2019-02-05T19:19:56.501Z,95.07
2019-02-05T19:22:27.325Z,94.81
2019-02-05T19:25:03.920Z,94.88
2019-02-05T19:27:34.491Z,95.02
2019-02-05T19:30:06.846Z,95.16
2019-02-05T19:32:38.743Z,95.12
2019-02-05T19:35:09.648Z,95.07
2019-02-05T19:37:40.354Z,94.99
2019-02-05T19:40:11.106Z,95.36
2019-02-05T19:42:41.759Z,95.36
2019-02-05T19:45:31.350Z,95.18
2019-02-05T19:48:02.935Z,95.39
2019-02-05T19:50:33.563Z,95.12
2019-02-05T19:53:04.241Z,95.21
2019-02-05T19:55:37.861Z,95.80
2019-02-05T19:58:08.406Z,95.35
2019-02-05T20:00:40.255Z,95.71
2019-02-05T20:03:10.767Z,96.18
2019-02-05T20:05:41.369Z,96.26
2019-02-05T20:08:11.993Z,96.37
2019-02-05T20:10:44.647Z,96.14
2019-02-05T20:13:15.185Z,96.25
2019-02-05T20:15:45.768Z,96.31
2019-02-05T20:18:16.603Z,95.73
2019-02-05T20:20:47.243Z,95.77
2019-02-05T20:23:17.773Z,95.94
2019-02-05T20:25:49.612Z,96.17
2019-02-05T20:28:20.199Z,96.70
2019-02-05T20:30:50.797Z,96.84
2019-02-05T20:33:21.549Z,96.93
2019-02-05T20:35:52.175Z,97.05
2019-02-05T20:38:22.915Z,97.18
2019-02-05T20:40:53.606Z,96.86
2019-02-05T20:43:24.481Z,96.65
2019-02-05T20:45:55.059Z,97.07
2019-02-05T20:48:25.677Z,97.08
2019-02-05T20:50:56.294Z,97.18
2019-02-05T20:53:26.890Z,97.31
2019-02-05T20:55:57.531Z,97.50
2019-02-05T20:58:28.169Z,97.22
2019-02-05T21:00:58.773Z,96.89
2019-02-05T21:03:29.314Z,97.02
2019-02-05T21:06:00.019Z,96.87
2019-02-05T21:08:30.707Z,96.78
2019-02-05T21:11:01.331Z,96.91
2019-02-05T21:13:31.975Z,97.11
2019-02-05T21:16:03.528Z,97.60
2019-02-05T21:18:43.900Z,97.75
2019-02-05T21:21:15.044Z,97.74
2019-02-05T21:23:46.277Z,97.33
2019-02-05T21:26:17.375Z,97.47
2019-02-05T21:28:50.308Z,97.50
2019-02-05T21:31:21.561Z,97.24
2019-02-05T21:33:52.516Z,97.33
2019-02-05T21:36:23.619Z,97.85
2019-02-05T21:38:59.420Z,97.91
2019-02-05T21:41:34.789Z,97.60
2019-02-05T21:44:06.509Z,97.25
2019-02-05T21:46:37.257Z,97.43
2019-02-05T21:49:10.541Z,97.98
2019-02-05T21:51:43.227Z,97.86
2019-02-05T21:54:19.825Z,97.76
2019-02-05T21:56:50.603Z,97.88
2019-02-05T21:59:24.850Z,98.14
2019-02-05T22:02:00.884Z,97.88
2019-02-05T22:04:31.953Z,98.19
2019-02-05T22:07:04.108Z,98.38
2019-02-05T22:09:35.144Z,98.58
2019-02-05T22:12:06.299Z,98.56
2019-02-05T22:14:37.149Z,98.56
2019-02-05T22:17:07.881Z,98.48
2019-02-05T22:19:38.617Z,98.33
2019-02-05T22:22:12.522Z,98.20
2019-02-05T22:24:44.817Z,97.90
2019-02-05T22:27:15.491Z,98.05
2019-02-05T22:29:49.080Z,98.23
2019-02-05T22:32:19.666Z,97.86
2019-02-05T22:34:50.291Z,98.00
2019-02-05T22:37:21.241Z,98.09
2019-02-05T22:39:52.080Z,98.15
2019-02-05T22:42:25.727Z,98.34
2019-02-05T22:44:56.876Z,98.74
2019-02-05T22:47:27.462Z,98.89
2019-02-05T22:49:58.098Z,98.71
2019-02-05T22:52:28.621Z,98.37
2019-02-05T22:54:59.213Z,98.52
2019-02-05T22:57:31.773Z,98.52
2019-02-05T23:00:02.072Z,98.39
2019-02-05T23:02:32.631Z,98.46
2019-02-05T23:05:40.243Z,98.17
2019-02-05T23:08:11.176Z,97.99
2019-02-05T23:11:26.030Z,98.26
2019-02-05T23:13:56.662Z,98.58
2019-02-05T23:16:27.240Z,98.47
2019-02-05T23:18:57.857Z,98.37
2019-02-05T23:21:28.440Z,98.07
2019-02-05T23:23:59.248Z,98.18
2019-02-05T23:26:29.883Z,98.23
2019-02-05T23:29:00.418Z,98.50
2019-02-05T23:31:30.960Z,98.36
2019-02-05T23:34:01.585Z,98.73
2019-02-05T23:36:32.136Z,98.97
2019-02-05T23:39:04.358Z,99.01
2019-02-05T23:41:34.886Z,98.91
2019-02-05T23:44:05.792Z,98.63
2019-02-05T23:46:36.393Z,98.50
2019-02-05T23:49:07.721Z,98.36
2019-02-05T23:51:38.477Z,98.34
2019-02-05T23:54:09.015Z,98.28
2019-02-05T23:56:39.582Z,98.31
2019-02-05T23:59:10.238Z,98.15
